sensor_id;sensor_type;location;lat;lon;timestamp;pressure;altitude;pressure_sealevel;temperature;humidity
60319;BME280;46163;52.306;5.634;2023-02-14T00:02:07;103359.44;;;16.21;52.09
60319;BME280;46163;52.306;5.634;2023-02-14T00:04:33;103360.97;;;16.15;52.09
60319;BME280;46163;52.306;5.634;2023-02-14T00:06:58;103361.78;;;16.16;52.40
60319;BME280;46163;52.306;5.634;2023-02-14T00:09:25;103360.50;;;16.11;52.21
60319;BME280;46163;52.306;5.634;2023-02-14T00:11:51;103360.50;;;16.11;52.16
60319;BME280;46163;52.306;5.634;2023-02-14T00:14:17;103362.53;;;16.09;52.16
60319;BME280;46163;52.306;5.634;2023-02-14T00:17:01;103367.25;;;16.07;51.90
60319;BME280;46163;52.306;5.634;2023-02-14T00:19:27;103364.69;;;16.06;51.84
60319;BME280;46163;52.306;5.634;2023-02-14T00:21:52;103356.00;;;16.04;52.05
60319;BME280;46163;52.306;5.634;2023-02-14T00:24:23;103356.19;;;16.02;51.91
60319;BME280;46163;52.306;5.634;2023-02-14T00:26:50;103357.38;;;16.00;51.92
60319;BME280;46163;52.306;5.634;2023-02-14T00:29:18;103354.00;;;15.98;51.78
60319;BME280;46163;52.306;5.634;2023-02-14T00:31:45;103355.84;;;15.97;52.01
60319;BME280;46163;52.306;5.634;2023-02-14T00:34:11;103351.69;;;15.95;51.88
60319;BME280;46163;52.306;5.634;2023-02-14T00:36:37;103351.84;;;15.93;51.85
60319;BME280;46163;52.306;5.634;2023-02-14T00:39:04;103354.72;;;15.92;52.03
60319;BME280;46163;52.306;5.634;2023-02-14T00:41:30;103346.84;;;15.90;52.08
60319;BME280;46163;52.306;5.634;2023-02-14T00:43:56;103339.28;;;15.86;51.96
60319;BME280;46163;52.306;5.634;2023-02-14T00:46:22;103352.53;;;15.87;51.90
60319;BME280;46163;52.306;5.634;2023-02-14T00:48:48;103345.69;;;15.85;51.85
60319;BME280;46163;52.306;5.634;2023-02-14T00:51:14;103343.00;;;15.85;51.86
60319;BME280;46163;52.306;5.634;2023-02-14T00:53:40;103336.97;;;15.82;52.03
60319;BME280;46163;52.306;5.634;2023-02-14T00:56:06;103336.28;;;15.80;51.97
60319;BME280;46163;52.306;5.634;2023-02-14T00:58:31;103333.78;;;15.79;52.00
60319;BME280;46163;52.306;5.634;2023-02-14T01:00:59;103328.59;;;15.77;51.83
60319;BME280;46163;52.306;5.634;2023-02-14T01:03:25;103329.59;;;15.76;51.81
60319;BME280;46163;52.306;5.634;2023-02-14T01:05:52;103330.44;;;15.77;51.58
60319;BME280;46163;52.306;5.634;2023-02-14T01:08:18;103328.94;;;15.74;51.76
60319;BME280;46163;52.306;5.634;2023-02-14T01:10:43;103327.44;;;15.72;51.77
60319;BME280;46163;52.306;5.634;2023-02-14T01:13:10;103327.63;;;15.70;51.75
60319;BME280;46163;52.306;5.634;2023-02-14T01:15:41;103326.78;;;15.70;51.71
60319;BME280;46163;52.306;5.634;2023-02-14T01:18:07;103327.97;;;15.67;51.45
60319;BME280;46163;52.306;5.634;2023-02-14T01:20:32;103325.28;;;15.67;51.64
60319;BME280;46163;52.306;5.634;2023-02-14T01:22:58;103327.31;;;15.65;51.78
60319;BME280;46163;52.306;5.634;2023-02-14T01:25:26;103323.94;;;15.63;51.78
60319;BME280;46163;52.306;5.634;2023-02-14T01:27:51;103322.28;;;15.62;51.57
60319;BME280;46163;52.306;5.634;2023-02-14T01:30:17;103324.28;;;15.60;51.76
60319;BME280;46163;52.306;5.634;2023-02-14T01:32:43;103320.09;;;15.58;51.56
60319;BME280;46163;52.306;5.634;2023-02-14T01:35:08;103317.59;;;15.56;51.74
60319;BME280;46163;52.306;5.634;2023-02-14T01:37:34;103323.78;;;15.57;51.71
60319;BME280;46163;52.306;5.634;2023-02-14T01:40:00;103317.72;;;15.54;51.67
60319;BME280;46163;52.306;5.634;2023-02-14T01:42:27;103323.28;;;15.53;51.50
60319;BME280;46163;52.306;5.634;2023-02-14T01:47:37;103320.78;;;15.51;51.67
60319;BME280;46163;52.306;5.634;2023-02-14T01:50:11;103320.13;;;15.49;51.81
60319;BME280;46163;52.306;5.634;2023-02-14T01:52:43;103324.81;;;15.47;51.58
60319;BME280;46163;52.306;5.634;2023-02-14T01:55:18;103320.28;;;15.48;51.56
60319;BME280;46163;52.306;5.634;2023-02-14T01:58:13;103313.25;;;15.47;51.58
60319;BME280;46163;52.306;5.634;2023-02-14T02:00:40;103315.25;;;15.45;51.53
60319;BME280;46163;52.306;5.634;2023-02-14T02:03:24;103316.25;;;15.44;51.63
60319;BME280;46163;52.306;5.634;2023-02-14T02:05:54;103302.03;;;15.35;51.45
60319;BME280;46163;52.306;5.634;2023-02-14T02:08:21;103304.03;;;15.41;51.47
60319;BME280;46163;52.306;5.634;2023-02-14T02:10:49;103312.28;;;15.40;51.58
60319;BME280;46163;52.306;5.634;2023-02-14T02:13:19;103309.59;;;15.40;51.49
60319;BME280;46163;52.306;5.634;2023-02-14T02:16:01;103304.41;;;15.38;51.55
60319;BME280;46163;52.306;5.634;2023-02-14T02:18:38;103297.50;;;15.36;51.47
60319;BME280;46163;52.306;5.634;2023-02-14T02:46:04;103300.56;;;15.24;51.45
60319;BME280;46163;52.306;5.634;2023-02-14T02:49:35;103293.72;;;15.22;51.53
60319;BME280;46163;52.306;5.634;2023-02-14T02:55:24;103293.88;;;15.20;51.13
60319;BME280;46163;52.306;5.634;2023-02-14T02:57:50;103288.66;;;15.19;51.32
60319;BME280;46163;52.306;5.634;2023-02-14T03:00:19;103292.34;;;15.18;51.38
60319;BME280;46163;52.306;5.634;2023-02-14T03:02:49;103295.22;;;15.16;51.25
60319;BME280;46163;52.306;5.634;2023-02-14T03:05:35;103290.69;;;15.17;51.25
60319;BME280;46163;52.306;5.634;2023-02-14T03:08:02;103287.19;;;15.16;50.98
60319;BME280;46163;52.306;5.634;2023-02-14T03:10:31;103281.66;;;15.10;51.26
60319;BME280;46163;52.306;5.634;2023-02-14T03:29:17;103279.16;;;15.08;51.10
60319;BME280;46163;52.306;5.634;2023-02-14T03:34:26;103271.28;;;15.07;51.09
60319;BME280;46163;52.306;5.634;2023-02-14T03:39:32;103271.63;;;15.04;50.85
60319;BME280;46163;52.306;5.634;2023-02-14T03:42:21;103275.16;;;15.04;51.15
60319;BME280;46163;52.306;5.634;2023-02-14T03:44:52;103274.47;;;15.02;51.06
60319;BME280;46163;52.306;5.634;2023-02-14T03:47:22;103270.09;;;15.01;50.84
60319;BME280;46163;52.306;5.634;2023-02-14T03:49:55;103264.75;;;15.01;50.99
60319;BME280;46163;52.306;5.634;2023-02-14T03:52:23;103267.59;;;14.99;50.89
60319;BME280;46163;52.306;5.634;2023-02-14T03:54:53;103261.41;;;14.99;50.89
60319;BME280;46163;52.306;5.634;2023-02-14T03:57:29;103262.41;;;14.98;51.20
60319;BME280;46163;52.306;5.634;2023-02-14T03:59:56;103267.13;;;14.96;50.78
60319;BME280;46163;52.306;5.634;2023-02-14T04:02:28;103259.25;;;14.94;51.10
60319;BME280;46163;52.306;5.634;2023-02-14T04:04:58;103263.59;;;14.95;50.68
60319;BME280;46163;52.306;5.634;2023-02-14T04:07:25;103271.66;;;14.95;51.05
60319;BME280;46163;52.306;5.634;2023-02-14T04:09:51;103271.78;;;14.94;50.81
60319;BME280;46163;52.306;5.634;2023-02-14T04:12:17;103264.94;;;14.91;51.05
60319;BME280;46163;52.306;5.634;2023-02-14T04:14:44;103264.94;;;14.91;50.97
60319;BME280;46163;52.306;5.634;2023-02-14T04:17:09;103271.97;;;14.92;50.87
60319;BME280;46163;52.306;5.634;2023-02-14T04:19:53;103268.44;;;14.92;50.68
60319;BME280;46163;52.306;5.634;2023-02-14T04:22:19;103270.13;;;14.93;50.73
60319;BME280;46163;52.306;5.634;2023-02-14T04:24:44;103269.97;;;14.94;50.80
60319;BME280;46163;52.306;5.634;2023-02-14T04:27:10;103263.75;;;14.94;50.99
60319;BME280;46163;52.306;5.634;2023-02-14T04:29:41;103265.75;;;15.00;51.01
60319;BME280;46163;52.306;5.634;2023-02-14T04:32:09;103265.91;;;15.07;50.75
60319;BME280;46163;52.306;5.634;2023-02-14T04:34:35;103270.75;;;15.11;50.41
60319;BME280;46163;52.306;5.634;2023-02-14T04:37:01;103270.06;;;15.17;50.67
60319;BME280;46163;52.306;5.634;2023-02-14T04:39:27;103265.88;;;15.23;50.42
60319;BME280;46163;52.306;5.634;2023-02-14T04:41:53;103258.31;;;15.26;50.35
60319;BME280;46163;52.306;5.634;2023-02-14T04:44:18;103266.66;;;15.40;50.09
60319;BME280;46163;52.306;5.634;2023-02-14T04:46:44;103261.59;;;15.45;49.96
60319;BME280;46163;52.306;5.634;2023-02-14T04:49:09;103255.53;;;15.51;49.90
60319;BME280;46163;52.306;5.634;2023-02-14T04:51:34;103257.34;;;15.59;49.80
60319;BME280;46163;52.306;5.634;2023-02-14T04:54:00;103251.44;;;15.71;49.32
60319;BME280;46163;52.306;5.634;2023-02-14T04:56:26;103252.06;;;15.81;49.20
60319;BME280;46163;52.306;5.634;2023-02-14T04:58:53;103255.53;;;15.90;49.10
60319;BME280;46163;52.306;5.634;2023-02-14T05:01:18;103252.78;;;15.98;48.92
60319;BME280;46163;52.306;5.634;2023-02-14T05:04:04;103258.94;;;16.07;48.85
60319;BME280;46163;52.306;5.634;2023-02-14T05:06:30;103251.00;;;16.14;48.45
60319;BME280;46163;52.306;5.634;2023-02-14T05:08:57;103245.56;;;16.22;48.25
60319;BME280;46163;52.306;5.634;2023-02-14T05:11:23;103256.44;;;16.28;48.33
60319;BME280;46163;52.306;5.634;2023-02-14T05:13:49;103255.53;;;16.36;48.01
60319;BME280;46163;52.306;5.634;2023-02-14T05:16:15;103248.59;;;16.42;47.97
60319;BME280;46163;52.306;5.634;2023-02-14T05:18:40;103246.41;;;16.45;47.83
60319;BME280;46163;52.306;5.634;2023-02-14T05:21:06;103247.69;;;16.49;47.71
60319;BME280;46163;52.306;5.634;2023-02-14T05:23:31;103236.59;;;16.52;47.70
60319;BME280;46163;52.306;5.634;2023-02-14T05:25:57;103243.25;;;16.56;47.52
60319;BME280;46163;52.306;5.634;2023-02-14T05:28:22;103241.22;;;16.58;47.50
60319;BME280;46163;52.306;5.634;2023-02-14T05:30:50;103245.88;;;16.64;47.40
60319;BME280;46163;52.306;5.634;2023-02-14T05:33:16;103241.16;;;16.66;47.29
60319;BME280;46163;52.306;5.634;2023-02-14T05:35:42;103242.69;;;16.69;47.33
60319;BME280;46163;52.306;5.634;2023-02-14T05:38:07;103237.13;;;16.71;47.19
60319;BME280;46163;52.306;5.634;2023-02-14T05:40:33;103235.28;;;16.71;47.18
60319;BME280;46163;52.306;5.634;2023-02-14T05:42:59;103248.97;;;16.76;47.34
60319;BME280;46163;52.306;5.634;2023-02-14T05:45:25;103245.13;;;16.79;47.12
60319;BME280;46163;52.306;5.634;2023-02-14T05:47:50;103248.25;;;16.82;47.23
60319;BME280;46163;52.306;5.634;2023-02-14T05:50:16;103255.97;;;16.85;47.21
60319;BME280;46163;52.306;5.634;2023-02-14T05:52:42;103244.84;;;16.88;47.03
60319;BME280;46163;52.306;5.634;2023-02-14T05:55:09;103241.78;;;16.91;47.04
60319;BME280;46163;52.306;5.634;2023-02-14T05:57:35;103242.41;;;16.93;46.94
60319;BME280;46163;52.306;5.634;2023-02-14T06:00:01;103245.78;;;16.95;47.04
60319;BME280;46163;52.306;5.634;2023-02-14T06:02:29;103241.69;;;17.00;46.92
60319;BME280;46163;52.306;5.634;2023-02-14T06:04:55;103242.34;;;17.02;46.91
60319;BME280;46163;52.306;5.634;2023-02-14T06:07:20;103248.19;;;17.05;46.89
60319;BME280;46163;52.306;5.634;2023-02-14T06:09:45;103242.25;;;17.10;46.62
60319;BME280;46163;52.306;5.634;2023-02-14T06:12:11;103244.94;;;17.10;46.89
60319;BME280;46163;52.306;5.634;2023-02-14T06:14:39;103251.44;;;17.15;46.92
60319;BME280;46163;52.306;5.634;2023-02-14T06:17:08;103243.16;;;17.17;46.79
60319;BME280;46163;52.306;5.634;2023-02-14T06:19:33;103244.84;;;17.18;46.82
60319;BME280;46163;52.306;5.634;2023-02-14T06:21:59;103244.50;;;17.21;47.32
60319;BME280;46163;52.306;5.634;2023-02-14T06:24:24;103235.38;;;17.22;46.97
60319;BME280;46163;52.306;5.634;2023-02-14T06:26:50;103251.44;;;17.30;47.11
60319;BME280;46163;52.306;5.634;2023-02-14T06:29:15;103251.88;;;17.34;47.60
60319;BME280;46163;52.306;5.634;2023-02-14T06:31:41;103254.19;;;17.37;47.30
60319;BME280;46163;52.306;5.634;2023-02-14T06:34:07;103249.94;;;17.42;47.19
60319;BME280;46163;52.306;5.634;2023-02-14T06:36:32;103254.09;;;17.45;47.22
60319;BME280;46163;52.306;5.634;2023-02-14T06:38:58;103253.75;;;17.48;47.19
60319;BME280;46163;52.306;5.634;2023-02-14T06:41:23;103259.19;;;17.55;47.34
60319;BME280;46163;52.306;5.634;2023-02-14T06:43:49;103240.19;;;17.56;47.31
60319;BME280;46163;52.306;5.634;2023-02-14T06:46:15;103244.34;;;17.59;47.38
60319;BME280;46163;52.306;5.634;2023-02-14T06:48:41;103248.16;;;17.64;47.70
60319;BME280;46163;52.306;5.634;2023-02-14T06:51:07;103240.97;;;17.71;48.17
60319;BME280;46163;52.306;5.634;2023-02-14T06:53:33;103252.44;;;17.73;47.99
60319;BME280;46163;52.306;5.634;2023-02-14T06:55:58;103242.50;;;17.74;47.28
60319;BME280;46163;52.306;5.634;2023-02-14T06:58:24;103246.22;;;17.73;47.21
60319;BME280;46163;52.306;5.634;2023-02-14T07:00:49;103245.38;;;17.72;46.93
60319;BME280;46163;52.306;5.634;2023-02-14T07:03:15;103250.25;;;17.69;46.91
60319;BME280;46163;52.306;5.634;2023-02-14T07:05:40;103257.97;;;17.72;46.72
60319;BME280;46163;52.306;5.634;2023-02-14T07:08:07;103254.81;;;17.68;46.83
60319;BME280;46163;52.306;5.634;2023-02-14T07:10:33;103265.78;;;17.67;47.06
60319;BME280;46163;52.306;5.634;2023-02-14T07:12:59;103265.78;;;17.67;46.85
60319;BME280;46163;52.306;5.634;2023-02-14T07:15:25;103267.81;;;17.65;47.02
60319;BME280;46163;52.306;5.634;2023-02-14T07:17:51;103259.09;;;17.63;47.41
60319;BME280;46163;52.306;5.634;2023-02-14T07:20:16;103262.59;;;17.63;47.04
60319;BME280;46163;52.306;5.634;2023-02-14T07:22:43;103265.13;;;17.65;47.09
60319;BME280;46163;52.306;5.634;2023-02-14T07:25:08;103257.22;;;17.63;46.88
60319;BME280;46163;52.306;5.634;2023-02-14T07:27:34;103258.09;;;17.64;47.04
60319;BME280;46163;52.306;5.634;2023-02-14T07:30:00;103254.38;;;17.65;46.83
60319;BME280;46163;52.306;5.634;2023-02-14T07:32:25;103260.38;;;17.67;46.94
60319;BME280;46163;52.306;5.634;2023-02-14T07:34:51;103257.06;;;17.65;47.22
60319;BME280;46163;52.306;5.634;2023-02-14T07:37:16;103255.63;;;17.69;47.32
60319;BME280;46163;52.306;5.634;2023-02-14T07:39:43;103260.66;;;17.72;47.42
60319;BME280;46163;52.306;5.634;2023-02-14T07:42:09;103260.13;;;17.76;47.33
60319;BME280;46163;52.306;5.634;2023-02-14T07:44:35;103257.88;;;17.80;47.15
60319;BME280;46163;52.306;5.634;2023-02-14T07:47:07;103255.00;;;17.82;47.40
60319;BME280;46163;52.306;5.634;2023-02-14T07:49:34;103259.81;;;17.86;47.22
60319;BME280;46163;52.306;5.634;2023-02-14T07:51:59;103256.56;;;17.91;47.30
60319;BME280;46163;52.306;5.634;2023-02-14T07:54:25;103267.56;;;17.96;47.39
60319;BME280;46163;52.306;5.634;2023-02-14T07:56:50;103259.97;;;17.99;47.26
60319;BME280;46163;52.306;5.634;2023-02-14T07:59:16;103263.28;;;18.01;47.13
60319;BME280;46163;52.306;5.634;2023-02-14T08:01:41;103258.94;;;18.00;46.92
60319;BME280;46163;52.306;5.634;2023-02-14T08:04:07;103250.38;;;17.97;46.73
60319;BME280;46163;52.306;5.634;2023-02-14T08:06:33;103255.22;;;18.01;46.53
60319;BME280;46163;52.306;5.634;2023-02-14T08:08:59;103251.69;;;18.01;46.73
60319;BME280;46163;52.306;5.634;2023-02-14T08:11:24;103242.78;;;18.00;46.74
60319;BME280;46163;52.306;5.634;2023-02-14T08:14:16;103253.34;;;18.02;46.72
60319;BME280;46163;52.306;5.634;2023-02-14T08:16:41;103240.91;;;18.01;46.81
60319;BME280;46163;52.306;5.634;2023-02-14T08:19:07;103247.75;;;18.03;46.59
60319;BME280;46163;52.306;5.634;2023-02-14T08:21:33;103245.91;;;18.04;46.46
60319;BME280;46163;52.306;5.634;2023-02-14T08:23:59;103245.91;;;18.04;46.87
60319;BME280;46163;52.306;5.634;2023-02-14T08:26:25;103245.06;;;18.03;47.22
60319;BME280;46163;52.306;5.634;2023-02-14T08:28:51;103246.38;;;18.07;46.95
60319;BME280;46163;52.306;5.634;2023-02-14T08:31:26;103252.75;;;18.06;46.77
60319;BME280;46163;52.306;5.634;2023-02-14T08:33:51;103247.56;;;18.05;46.93
60319;BME280;46163;52.306;5.634;2023-02-14T08:36:17;103249.22;;;18.06;46.70
60319;BME280;46163;52.306;5.634;2023-02-14T08:38:44;103250.47;;;18.03;46.71
60319;BME280;46163;52.306;5.634;2023-02-14T08:41:12;103251.09;;;18.05;46.87
60319;BME280;46163;52.306;5.634;2023-02-14T08:43:37;103252.59;;;18.08;46.72
60319;BME280;46163;52.306;5.634;2023-02-14T08:46:03;103251.94;;;18.06;46.75
60319;BME280;46163;52.306;5.634;2023-02-14T08:48:28;103247.56;;;18.05;46.93
60319;BME280;46163;52.306;5.634;2023-02-14T08:50:54;103249.44;;;18.04;47.00
60319;BME280;46163;52.306;5.634;2023-02-14T08:53:19;103258.53;;;18.03;47.01
60319;BME280;46163;52.306;5.634;2023-02-14T08:55:46;103254.81;;;18.04;47.01
60319;BME280;46163;52.306;5.634;2023-02-14T08:58:13;103262.72;;;18.06;46.93
60319;BME280;46163;52.306;5.634;2023-02-14T09:00:38;103262.91;;;18.04;47.18
60319;BME280;46163;52.306;5.634;2023-02-14T09:03:04;103257.50;;;18.04;47.29
60319;BME280;46163;52.306;5.634;2023-02-14T09:05:29;103256.13;;;18.08;46.96
60319;BME280;46163;52.306;5.634;2023-02-14T09:07:55;103257.59;;;18.11;47.03
60319;BME280;46163;52.306;5.634;2023-02-14T09:10:22;103256.75;;;18.11;47.33
60319;BME280;46163;52.306;5.634;2023-02-14T09:12:47;103260.09;;;18.13;46.98
60319;BME280;46163;52.306;5.634;2023-02-14T09:15:13;103258.22;;;18.13;47.14
60319;BME280;46163;52.306;5.634;2023-02-14T09:17:39;103244.94;;;18.12;46.97
60319;BME280;46163;52.306;5.634;2023-02-14T09:20:06;103254.97;;;18.18;47.12
60319;BME280;46163;52.306;5.634;2023-02-14T09:22:32;103259.31;;;18.19;46.89
60319;BME280;46163;52.306;5.634;2023-02-14T09:24:58;103248.53;;;18.19;47.09
60319;BME280;46163;52.306;5.634;2023-02-14T09:27:24;103250.41;;;18.18;46.88
60319;BME280;46163;52.306;5.634;2023-02-14T09:29:49;103247.72;;;18.18;46.88
60319;BME280;46163;52.306;5.634;2023-02-14T09:32:15;103241.69;;;18.16;46.83
60319;BME280;46163;52.306;5.634;2023-02-14T09:34:41;103253.53;;;18.22;46.74
60319;BME280;46163;52.306;5.634;2023-02-14T09:37:11;103256.88;;;18.24;46.91
60319;BME280;46163;52.306;5.634;2023-02-14T09:39:55;103243.22;;;18.25;46.62
60319;BME280;46163;52.306;5.634;2023-02-14T09:45:27;103243.25;;;18.32;46.62
60319;BME280;46163;52.306;5.634;2023-02-14T09:52:55;103244.56;;;18.36;46.55
60319;BME280;46163;52.306;5.634;2023-02-14T09:55:25;103240.63;;;18.39;46.40
60319;BME280;46163;52.306;5.634;2023-02-14T09:58:04;103239.41;;;18.41;46.19
60319;BME280;46163;52.306;5.634;2023-02-14T10:00:41;103235.69;;;18.42;46.33
60319;BME280;46163;52.306;5.634;2023-02-14T10:06:03;103233.44;;;18.46;46.25
60319;BME280;46163;52.306;5.634;2023-02-14T10:11:26;103242.63;;;18.51;46.19
60319;BME280;46163;52.306;5.634;2023-02-14T10:14:00;103231.44;;;18.54;46.00
60319;BME280;46163;52.306;5.634;2023-02-14T10:19:23;103233.16;;;18.62;46.07
60319;BME280;46163;52.306;5.634;2023-02-14T10:22:16;103232.78;;;18.65;45.79
60319;BME280;46163;52.306;5.634;2023-02-14T10:29:50;103241.97;;;18.71;45.63
60319;BME280;46163;52.306;5.634;2023-02-14T10:32:23;103245.28;;;18.73;45.91
60319;BME280;46163;52.306;5.634;2023-02-14T10:34:55;103237.81;;;18.75;45.80
60319;BME280;46163;52.306;5.634;2023-02-14T10:46:05;103232.28;;;18.83;45.68
60319;BME280;46163;52.306;5.634;2023-02-14T10:51:30;103230.22;;;18.85;45.48
60319;BME280;46163;52.306;5.634;2023-02-14T10:57:00;103226.50;;;18.86;45.48
60319;BME280;46163;52.306;5.634;2023-02-14T11:02:00;103222.56;;;18.88;45.73
60319;BME280;46163;52.306;5.634;2023-02-14T11:04:27;103222.38;;;18.90;45.96
60319;BME280;46163;52.306;5.634;2023-02-14T11:06:55;103206.78;;;18.85;45.86
60319;BME280;46163;52.306;5.634;2023-02-14T11:09:21;103209.28;;;18.87;45.82
60319;BME280;46163;52.306;5.634;2023-02-14T11:11:54;103209.28;;;18.87;45.89
60319;BME280;46163;52.306;5.634;2023-02-14T11:14:27;103198.69;;;18.85;45.95
60319;BME280;46163;52.306;5.634;2023-02-14T11:16:54;103203.22;;;18.85;46.07
60319;BME280;46163;52.306;5.634;2023-02-14T11:19:32;103205.75;;;18.86;46.35
60319;BME280;46163;52.306;5.634;2023-02-14T11:22:03;103196.84;;;18.86;46.34
60319;BME280;46163;52.306;5.634;2023-02-14T11:24:35;103191.44;;;18.86;46.40
60319;BME280;46163;52.306;5.634;2023-02-14T11:32:15;103201.19;;;18.87;46.49
60319;BME280;46163;52.306;5.634;2023-02-14T11:34:46;103184.19;;;18.86;46.38
60319;BME280;46163;52.306;5.634;2023-02-14T11:37:31;103191.44;;;18.86;46.57
60319;BME280;46163;52.306;5.634;2023-02-14T11:40:00;103186.03;;;18.86;46.57
60319;BME280;46163;52.306;5.634;2023-02-14T11:42:43;103179.59;;;18.87;46.69
60319;BME280;46163;52.306;5.634;2023-02-14T11:45:38;103169.84;;;18.86;46.84
60319;BME280;46163;52.306;5.634;2023-02-14T11:48:23;103172.56;;;18.86;46.77
60319;BME280;46163;52.306;5.634;2023-02-14T11:50:55;103168.81;;;18.87;46.74
60319;BME280;46163;52.306;5.634;2023-02-14T11:53:24;103157.19;;;18.86;46.94
60319;BME280;46163;52.306;5.634;2023-02-14T11:55:55;103163.63;;;18.85;46.66
60319;BME280;46163;52.306;5.634;2023-02-14T12:01:01;103141.78;;;18.80;46.81
60319;BME280;46163;52.306;5.634;2023-02-14T12:03:29;103145.94;;;18.83;46.92
60319;BME280;46163;52.306;5.634;2023-02-14T12:05:58;103144.50;;;18.80;47.02
60319;BME280;46163;52.306;5.634;2023-02-14T12:08:29;103148.84;;;18.81;46.91
60319;BME280;46163;52.306;5.634;2023-02-14T12:11:18;103148.03;;;18.81;47.15
60319;BME280;46163;52.306;5.634;2023-02-14T12:13:55;103133.06;;;18.78;47.16
60319;BME280;46163;52.306;5.634;2023-02-14T12:16:55;103134.94;;;18.78;47.06
60319;BME280;46163;52.306;5.634;2023-02-14T12:19:28;103123.91;;;18.73;47.24
60319;BME280;46163;52.306;5.634;2023-02-14T12:21:57;103126.03;;;18.77;47.22
60319;BME280;46163;52.306;5.634;2023-02-14T12:24:31;103128.72;;;18.77;47.22
60319;BME280;46163;52.306;5.634;2023-02-14T12:27:05;103133.91;;;18.79;47.21
60319;BME280;46163;52.306;5.634;2023-02-14T12:29:43;103131.41;;;18.77;47.32
60319;BME280;46163;52.306;5.634;2023-02-14T12:32:28;103125.56;;;18.74;47.18
60319;BME280;46163;52.306;5.634;2023-02-14T12:35:13;103124.53;;;18.75;47.13
60319;BME280;46163;52.306;5.634;2023-02-14T12:43:55;103110.41;;;18.73;47.17
60319;BME280;46163;52.306;5.634;2023-02-14T12:46:34;103100.47;;;18.73;46.99
60319;BME280;46163;52.306;5.634;2023-02-14T12:52:08;103098.81;;;18.72;47.34
60319;BME280;46163;52.306;5.634;2023-02-14T12:57:47;103094.66;;;18.70;47.29
60319;BME280;46163;52.306;5.634;2023-02-14T13:11:08;103067.69;;;18.76;47.03
60319;BME280;46163;52.306;5.634;2023-02-14T13:16:50;103065.44;;;18.80;46.97
60319;BME280;46163;52.306;5.634;2023-02-14T13:22:24;103049.44;;;18.85;46.83
60319;BME280;46163;52.306;5.634;2023-02-14T13:24:55;103053.44;;;18.89;46.75
60319;BME280;46163;52.306;5.634;2023-02-14T13:27:24;103052.38;;;18.90;46.58
60319;BME280;46163;52.306;5.634;2023-02-14T13:29:57;103046.56;;;18.93;46.48
60319;BME280;46163;52.306;5.634;2023-02-14T13:32:27;103048.28;;;18.94;46.54
60319;BME280;46163;52.306;5.634;2023-02-14T13:34:56;103036.63;;;18.93;46.51
60319;BME280;46163;52.306;5.634;2023-02-14T13:37:24;103033.75;;;18.95;46.42
60319;BME280;46163;52.306;5.634;2023-02-14T13:39:54;103029.38;;;18.94;46.61
60319;BME280;46163;52.306;5.634;2023-02-14T13:50:54;103025.44;;;18.97;47.70
60319;BME280;46163;52.306;5.634;2023-02-14T13:53:33;103019.22;;;18.96;47.94
60319;BME280;46163;52.306;5.634;2023-02-14T13:56:02;103024.00;;;18.94;47.88
60319;BME280;46163;52.306;5.634;2023-02-14T13:58:28;103022.50;;;18.91;47.70
60319;BME280;46163;52.306;5.634;2023-02-14T14:00:54;103019.19;;;18.89;47.89
60319;BME280;46163;52.306;5.634;2023-02-14T14:06:05;103009.19;;;18.83;48.00
60319;BME280;46163;52.306;5.634;2023-02-14T14:10:58;103005.47;;;18.78;48.02
60319;BME280;46163;52.306;5.634;2023-02-14T14:21:35;103008.53;;;18.75;47.92
60319;BME280;46163;52.306;5.634;2023-02-14T14:26:50;103001.91;;;18.71;47.78
60319;BME280;46163;52.306;5.634;2023-02-14T14:31:50;103006.03;;;18.67;47.58
60319;BME280;46163;52.306;5.634;2023-02-14T14:34:20;102989.19;;;18.64;47.58
60319;BME280;46163;52.306;5.634;2023-02-14T14:36:46;103001.00;;;18.63;47.75
60319;BME280;46163;52.306;5.634;2023-02-14T14:39:24;103003.72;;;18.63;47.58
60319;BME280;46163;52.306;5.634;2023-02-14T14:41:51;102999.56;;;18.61;47.66
60319;BME280;46163;52.306;5.634;2023-02-14T14:44:17;102995.22;;;18.60;47.53
60319;BME280;46163;52.306;5.634;2023-02-14T14:46:43;102994.38;;;18.59;47.47
60319;BME280;46163;52.306;5.634;2023-02-14T14:49:10;102985.41;;;18.59;47.66
60319;BME280;46163;52.306;5.634;2023-02-14T14:51:36;102988.31;;;18.57;47.50
60319;BME280;46163;52.306;5.634;2023-02-14T14:54:04;102985.00;;;18.55;47.67
60319;BME280;46163;52.306;5.634;2023-02-14T14:56:34;102990.44;;;18.62;47.58
60319;BME280;46163;52.306;5.634;2023-02-14T15:01:54;102988.78;;;18.61;47.71
60319;BME280;46163;52.306;5.634;2023-02-14T15:04:26;102995.63;;;18.63;47.70
60319;BME280;46163;52.306;5.634;2023-02-14T15:06:55;102991.25;;;18.62;47.62
60319;BME280;46163;52.306;5.634;2023-02-14T15:09:31;102994.41;;;18.66;47.63
60319;BME280;46163;52.306;5.634;2023-02-14T15:12:00;102986.69;;;18.63;47.68
60319;BME280;46163;52.306;5.634;2023-02-14T15:14:47;102987.16;;;18.67;47.39
60319;BME280;46163;52.306;5.634;2023-02-14T15:17:21;102991.13;;;18.71;47.81
60319;BME280;46163;52.306;5.634;2023-02-14T15:19:53;102974.50;;;18.74;48.33
60319;BME280;46163;52.306;5.634;2023-02-14T15:22:23;102977.66;;;18.77;48.70
60319;BME280;46163;52.306;5.634;2023-02-14T15:24:50;102980.53;;;18.76;48.92
60319;BME280;46163;52.306;5.634;2023-02-14T15:27:22;102977.44;;;18.79;49.31
60319;BME280;46163;52.306;5.634;2023-02-14T15:29:58;102982.63;;;18.80;49.80
60319;BME280;46163;52.306;5.634;2023-02-14T15:32:24;102972.69;;;18.81;50.29
60319;BME280;46163;52.306;5.634;2023-02-14T15:34:51;102978.06;;;18.81;49.92
60319;BME280;46163;52.306;5.634;2023-02-14T15:37:21;102976.63;;;18.78;49.33
60319;BME280;46163;52.306;5.634;2023-02-14T15:39:52;102964.34;;;18.69;48.89